sensor_id;sensor_type;location;lat;lon;timestamp;P1;durP1;ratioP1;P2;durP2;ratioP2
72674;SDS011;60752;53.962;9.614;2023-08-06T00:21:20;5.40;;;1.70;;
72674;SDS011;60752;53.962;9.614;2023-08-06T00:51:22;3.70;;;1.63;;
72674;SDS011;60752;53.962;9.614;2023-08-06T01:21:24;7.60;;;2.10;;
72674;SDS011;60752;53.962;9.614;2023-08-06T01:51:25;5.32;;;1.88;;
72674;SDS011;60752;53.962;9.614;2023-08-06T02:21:27;5.40;;;2.00;;
72674;SDS011;60752;53.962;9.614;2023-08-06T02:51:28;6.17;;;2.10;;
72674;SDS011;60752;53.962;9.614;2023-08-06T03:21:30;5.37;;;2.33;;
72674;SDS011;60752;53.962;9.614;2023-08-06T03:51:32;7.67;;;2.30;;
72674;SDS011;60752;53.962;9.614;2023-08-06T04:21:33;4.45;;;2.08;;
72674;SDS011;60752;53.962;9.614;2023-08-06T04:51:35;5.03;;;2.50;;
72674;SDS011;60752;53.962;9.614;2023-08-06T05:21:37;6.70;;;2.43;;
72674;SDS011;60752;53.962;9.614;2023-08-06T05:51:38;8.13;;;2.67;;
72674;SDS011;60752;53.962;9.614;2023-08-06T06:21:40;6.80;;;2.23;;
72674;SDS011;60752;53.962;9.614;2023-08-06T06:51:42;6.82;;;3.85;;
72674;SDS011;60752;53.962;9.614;2023-08-06T07:21:43;6.63;;;3.33;;
72674;SDS011;60752;53.962;9.614;2023-08-06T07:51:45;11.23;;;3.30;;
72674;SDS011;60752;53.962;9.614;2023-08-06T08:21:46;9.03;;;3.40;;
72674;SDS011;60752;53.962;9.614;2023-08-06T08:51:48;6.00;;;3.40;;
72674;SDS011;60752;53.962;9.614;2023-08-06T09:21:52;7.70;;;3.47;;
72674;SDS011;60752;53.962;9.614;2023-08-06T09:51:53;10.87;;;4.23;;
72674;SDS011;60752;53.962;9.614;2023-08-06T10:22:09;8.10;;;3.30;;
72674;SDS011;60752;53.962;9.614;2023-08-06T10:52:10;7.17;;;3.60;;
72674;SDS011;60752;53.962;9.614;2023-08-06T11:22:12;7.60;;;3.23;;
72674;SDS011;60752;53.962;9.614;2023-08-06T11:52:16;9.63;;;2.60;;
72674;SDS011;60752;53.962;9.614;2023-08-06T12:22:17;4.83;;;2.10;;
72674;SDS011;60752;53.962;9.614;2023-08-06T12:52:19;6.20;;;2.10;;
72674;SDS011;60752;53.962;9.614;2023-08-06T13:22:21;5.33;;;2.23;;
72674;SDS011;60752;53.962;9.614;2023-08-06T13:52:22;5.93;;;2.50;;
72674;SDS011;60752;53.962;9.614;2023-08-06T14:22:24;4.78;;;2.30;;
72674;SDS011;60752;53.962;9.614;2023-08-06T14:52:26;6.63;;;2.20;;
72674;SDS011;60752;53.962;9.614;2023-08-06T15:22:27;6.27;;;2.40;;
72674;SDS011;60752;53.962;9.614;2023-08-06T15:52:29;6.57;;;2.20;;
72674;SDS011;60752;53.962;9.614;2023-08-06T16:22:31;5.40;;;2.30;;
72674;SDS011;60752;53.962;9.614;2023-08-06T16:52:32;5.85;;;2.13;;
72674;SDS011;60752;53.962;9.614;2023-08-06T17:22:34;6.03;;;2.37;;
72674;SDS011;60752;53.962;9.614;2023-08-06T17:52:35;8.93;;;2.50;;
72674;SDS011;60752;53.962;9.614;2023-08-06T18:22:37;7.97;;;2.77;;
72674;SDS011;60752;53.962;9.614;2023-08-06T18:52:40;9.17;;;3.10;;
72674;SDS011;60752;53.962;9.614;2023-08-06T19:22:41;5.75;;;2.58;;
72674;SDS011;60752;53.962;9.614;2023-08-06T19:52:43;5.50;;;2.70;;
72674;SDS011;60752;53.962;9.614;2023-08-06T20:22:44;5.07;;;2.20;;
72674;SDS011;60752;53.962;9.614;2023-08-06T20:52:46;5.93;;;1.80;;
72674;SDS011;60752;53.962;9.614;2023-08-06T21:22:48;8.10;;;2.20;;
72674;SDS011;60752;53.962;9.614;2023-08-06T21:52:49;5.55;;;1.88;;
72674;SDS011;60752;53.962;9.614;2023-08-06T22:22:51;6.07;;;1.63;;
72674;SDS011;60752;53.962;9.614;2023-08-06T22:52:53;4.63;;;1.97;;
72674;SDS011;60752;53.962;9.614;2023-08-06T23:22:54;4.53;;;1.80;;
72674;SDS011;60752;53.962;9.614;2023-08-06T23:52:56;3.80;;;1.57;;
